<?xml version="1.0" encoding="UTF-8"?>
<gpx xmlns="http://www.topografix.com/GPX/1/1" xmlns:xsi="http://www.w3.org/2001/XMLSchema-instance" version="1.1" xsi:schemaLocation="http://www.topografix.com/GPX/1/1 http://www.topografix.com/GPX/1/1/gpx.xsd">
  <metadata>
    <name>Cactus Man Triathlon 2022 - Sprint Aquabike</name>
  </metadata>
  <trk>
    <name>Cactus Man Triathlon 2022 - Sprint Aquabike</name>
    <trkseg>
      <trkpt lat="33.431375" lon="-111.945603">
        <ele>349.200013</ele>
        <time>2024-04-28T06:46:00.000Z</time>
      </trkpt>
      <trkpt lat="33.431058" lon="-111.94676">
        <ele>349.201497</ele>
        <time>2024-04-28T06:46:11.000Z</time>
      </trkpt>
      <trkpt lat="33.430925" lon="-111.94737">
        <ele>349.20832</ele>
        <time>2024-04-28T06:46:17.000Z</time>
      </trkpt>
      <trkpt lat="33.430914" lon="-111.947469">
        <ele>349.209336</ele>
        <time>2024-04-28T06:46:18.000Z</time>
      </trkpt>
      <trkpt lat="33.430828" lon="-111.94829">
        <ele>349.218323</ele>
        <time>2024-04-28T06:46:26.000Z</time>
      </trkpt>
      <trkpt lat="33.430828" lon="-111.949264">
        <ele>349.302923</ele>
        <time>2024-04-28T06:46:35.000Z</time>
      </trkpt>
      <trkpt lat="33.430857" lon="-111.949444">
        <ele>349.330952</ele>
        <time>2024-04-28T06:46:37.000Z</time>
      </trkpt>
      <trkpt lat="33.430875" lon="-111.949629">
        <ele>349.35752</ele>
        <time>2024-04-28T06:46:39.000Z</time>
      </trkpt>
      <trkpt lat="33.431069" lon="-111.95159">
        <ele>349.477028</ele>
        <time>2024-04-28T06:46:57.000Z</time>
      </trkpt>
      <trkpt lat="33.431018" lon="-111.952288">
        <ele>349.404001</ele>
        <time>2024-04-28T06:47:04.000Z</time>
      </trkpt>
      <trkpt lat="33.431002" lon="-111.952423">
        <ele>349.389144</ele>
        <time>2024-04-28T06:47:05.000Z</time>
      </trkpt>
      <trkpt lat="33.430619" lon="-111.954168">
        <ele>348.804094</ele>
        <time>2024-04-28T06:47:22.000Z</time>
      </trkpt>
      <trkpt lat="33.430578" lon="-111.954748">
        <ele>348.554438</ele>
        <time>2024-04-28T06:47:27.000Z</time>
      </trkpt>
      <trkpt lat="33.430639" lon="-111.955484">
        <ele>348.322271</ele>
        <time>2024-04-28T06:47:34.000Z</time>
      </trkpt>
      <trkpt lat="33.430865" lon="-111.956628">
        <ele>348.116663</ele>
        <time>2024-04-28T06:47:45.000Z</time>
      </trkpt>
      <trkpt lat="33.430913" lon="-111.957298">
        <ele>348.008096</ele>
        <time>2024-04-28T06:47:51.000Z</time>
      </trkpt>
      <trkpt lat="33.430805" lon="-111.958093">
        <ele>348.005036</ele>
        <time>2024-04-28T06:47:58.000Z</time>
      </trkpt>
      <trkpt lat="33.430553" lon="-111.958802">
        <ele>348.002034</ele>
        <time>2024-04-28T06:48:05.000Z</time>
      </trkpt>
      <trkpt lat="33.430416" lon="-111.959085">
        <ele>348.000814</ele>
        <time>2024-04-28T06:48:08.000Z</time>
      </trkpt>
      <trkpt lat="33.430217" lon="-111.959514">
        <ele>347.998751</ele>
        <time>2024-04-28T06:48:13.000Z</time>
      </trkpt>
      <trkpt lat="33.430086" lon="-111.95979">
        <ele>347.99737</ele>
        <time>2024-04-28T06:48:16.000Z</time>
      </trkpt>
      <trkpt lat="33.430003" lon="-111.959967">
        <ele>347.996504</ele>
        <time>2024-04-28T06:48:18.000Z</time>
      </trkpt>
      <trkpt lat="33.429905" lon="-111.96019">
        <ele>347.99535</ele>
        <time>2024-04-28T06:48:20.000Z</time>
      </trkpt>
      <trkpt lat="33.42969" lon="-111.960744">
        <ele>347.992774</ele>
        <time>2024-04-28T06:48:26.000Z</time>
      </trkpt>
      <trkpt lat="33.429636" lon="-111.960958">
        <ele>347.991746</ele>
        <time>2024-04-28T06:48:28.000Z</time>
      </trkpt>
      <trkpt lat="33.429734" lon="-111.960961">
        <ele>347.991235</ele>
        <time>2024-04-28T06:48:29.000Z</time>
      </trkpt>
      <trkpt lat="33.430156" lon="-111.960963">
        <ele>347.940965</ele>
        <time>2024-04-28T06:48:34.000Z</time>
      </trkpt>
      <trkpt lat="33.430218" lon="-111.960962">
        <ele>347.92953</ele>
        <time>2024-04-28T06:48:35.000Z</time>
      </trkpt>
      <trkpt lat="33.430309" lon="-111.960973">
        <ele>347.914293</ele>
        <time>2024-04-28T06:48:36.000Z</time>
      </trkpt>
      <trkpt lat="33.430889" lon="-111.961047">
        <ele>347.820125</ele>
        <time>2024-04-28T06:48:42.000Z</time>
      </trkpt>
      <trkpt lat="33.431269" lon="-111.961089">
        <ele>347.755945</ele>
        <time>2024-04-28T06:48:46.000Z</time>
      </trkpt>
      <trkpt lat="33.431588" lon="-111.961151">
        <ele>347.700894</ele>
        <time>2024-04-28T06:48:50.000Z</time>
      </trkpt>
      <trkpt lat="33.431709" lon="-111.961089">
        <ele>347.663637</ele>
        <time>2024-04-28T06:48:51.000Z</time>
      </trkpt>
      <trkpt lat="33.433429" lon="-111.961117">
        <ele>347.015504</ele>
        <time>2024-04-28T06:49:10.000Z</time>
      </trkpt>
      <trkpt lat="33.433912" lon="-111.961083">
        <ele>346.929122</ele>
        <time>2024-04-28T06:49:15.000Z</time>
      </trkpt>
      <trkpt lat="33.436479" lon="-111.960839">
        <ele>346.70029</ele>
        <time>2024-04-28T06:49:44.000Z</time>
      </trkpt>
      <trkpt lat="33.4366" lon="-111.960816">
        <ele>346.700573</ele>
        <time>2024-04-28T06:49:45.000Z</time>
      </trkpt>
      <trkpt lat="33.436744" lon="-111.960797">
        <ele>346.700868</ele>
        <time>2024-04-28T06:49:47.000Z</time>
      </trkpt>
      <trkpt lat="33.437032" lon="-111.960779">
        <ele>346.707022</ele>
        <time>2024-04-28T06:49:50.000Z</time>
      </trkpt>
      <trkpt lat="33.437118" lon="-111.960791">
        <ele>346.727859</ele>
        <time>2024-04-28T06:49:51.000Z</time>
      </trkpt>
      <trkpt lat="33.437125" lon="-111.96079">
        <ele>346.72786</ele>
        <time>2024-04-28T06:49:51.000Z</time>
      </trkpt>
      <trkpt lat="33.437004" lon="-111.959792">
        <ele>346.930249</ele>
        <time>2024-04-28T06:50:00.000Z</time>
      </trkpt>
      <trkpt lat="33.437006" lon="-111.959801">
        <ele>346.930262</ele>
        <time>2024-04-28T06:50:00.000Z</time>
      </trkpt>
      <trkpt lat="33.436836" lon="-111.958959">
        <ele>347.104768</ele>
        <time>2024-04-28T06:50:08.000Z</time>
      </trkpt>
      <trkpt lat="33.436668" lon="-111.958109">
        <ele>347.294368</ele>
        <time>2024-04-28T06:50:16.000Z</time>
      </trkpt>
      <trkpt lat="33.436506" lon="-111.957266">
        <ele>347.487438</ele>
        <time>2024-04-28T06:50:24.000Z</time>
      </trkpt>
      <trkpt lat="33.436342" lon="-111.956429">
        <ele>347.651586</ele>
        <time>2024-04-28T06:50:32.000Z</time>
      </trkpt>
      <trkpt lat="33.436168" lon="-111.955602">
        <ele>347.753883</ele>
        <time>2024-04-28T06:50:40.000Z</time>
      </trkpt>
      <trkpt lat="33.436169" lon="-111.955597">
        <ele>347.753875</ele>
        <time>2024-04-28T06:50:40.000Z</time>
      </trkpt>
      <trkpt lat="33.435943" lon="-111.954654">
        <ele>347.869994</ele>
        <time>2024-04-28T06:50:49.000Z</time>
      </trkpt>
      <trkpt lat="33.435949" lon="-111.954654">
        <ele>347.869985</ele>
        <time>2024-04-28T06:50:49.000Z</time>
      </trkpt>
      <trkpt lat="33.435855" lon="-111.953623">
        <ele>347.917099</ele>
        <time>2024-04-28T06:50:59.000Z</time>
      </trkpt>
      <trkpt lat="33.435768" lon="-111.952593">
        <ele>347.96143</ele>
        <time>2024-04-28T06:51:09.000Z</time>
      </trkpt>
      <trkpt lat="33.435683" lon="-111.951571">
        <ele>348.216865</ele>
        <time>2024-04-28T06:51:19.000Z</time>
      </trkpt>
      <trkpt lat="33.435685" lon="-111.951587">
        <ele>348.21685</ele>
        <time>2024-04-28T06:51:19.000Z</time>
      </trkpt>
      <trkpt lat="33.435613" lon="-111.950594">
        <ele>348.493188</ele>
        <time>2024-04-28T06:51:28.000Z</time>
      </trkpt>
      <trkpt lat="33.435552" lon="-111.949618">
        <ele>348.958754</ele>
        <time>2024-04-28T06:51:37.000Z</time>
      </trkpt>
      <trkpt lat="33.435702" lon="-111.9496">
        <ele>349.058087</ele>
        <time>2024-04-28T06:51:39.000Z</time>
      </trkpt>
      <trkpt lat="33.43653" lon="-111.949527">
        <ele>349.601714</ele>
        <time>2024-04-28T06:51:48.000Z</time>
      </trkpt>
      <trkpt lat="33.436631" lon="-111.949522">
        <ele>349.668345</ele>
        <time>2024-04-28T06:51:49.000Z</time>
      </trkpt>
      <trkpt lat="33.436835" lon="-111.949517">
        <ele>349.821956</ele>
        <time>2024-04-28T06:51:51.000Z</time>
      </trkpt>
      <trkpt lat="33.437193" lon="-111.949402">
        <ele>350.187951</ele>
        <time>2024-04-28T06:51:55.000Z</time>
      </trkpt>
      <trkpt lat="33.437402" lon="-111.949371">
        <ele>350.381888</ele>
        <time>2024-04-28T06:51:57.000Z</time>
      </trkpt>
      <trkpt lat="33.437905" lon="-111.94932">
        <ele>350.87195</ele>
        <time>2024-04-28T06:52:03.000Z</time>
      </trkpt>
      <trkpt lat="33.4385" lon="-111.949145">
        <ele>351.45518</ele>
        <time>2024-04-28T06:52:10.000Z</time>
      </trkpt>
      <trkpt lat="33.439066" lon="-111.948847">
        <ele>351.864039</ele>
        <time>2024-04-28T06:52:17.000Z</time>
      </trkpt>
      <trkpt lat="33.439179" lon="-111.948774">
        <ele>351.941776</ele>
        <time>2024-04-28T06:52:18.000Z</time>
      </trkpt>
      <trkpt lat="33.439372" lon="-111.948662">
        <ele>352.088783</ele>
        <time>2024-04-28T06:52:20.000Z</time>
      </trkpt>
      <trkpt lat="33.439382" lon="-111.948674">
        <ele>352.091799</ele>
        <time>2024-04-28T06:52:20.000Z</time>
      </trkpt>
      <trkpt lat="33.439434" lon="-111.948841">
        <ele>352.191374</ele>
        <time>2024-04-28T06:52:22.000Z</time>
      </trkpt>
      <trkpt lat="33.439725" lon="-111.949714">
        <ele>352.613936</ele>
        <time>2024-04-28T06:52:31.000Z</time>
      </trkpt>
      <trkpt lat="33.439822" lon="-111.950053">
        <ele>352.525098</ele>
        <time>2024-04-28T06:52:34.000Z</time>
      </trkpt>
      <trkpt lat="33.439857" lon="-111.950261">
        <ele>352.469825</ele>
        <time>2024-04-28T06:52:36.000Z</time>
      </trkpt>
      <trkpt lat="33.43997" lon="-111.950838">
        <ele>352.325186</ele>
        <time>2024-04-28T06:52:41.000Z</time>
      </trkpt>
      <trkpt lat="33.440367" lon="-111.953019">
        <ele>351.628229</ele>
        <time>2024-04-28T06:53:02.000Z</time>
      </trkpt>
      <trkpt lat="33.440467" lon="-111.953492">
        <ele>351.460128</ele>
        <time>2024-04-28T06:53:07.000Z</time>
      </trkpt>
      <trkpt lat="33.44059" lon="-111.953997">
        <ele>351.339858</ele>
        <time>2024-04-28T06:53:12.000Z</time>
      </trkpt>
      <trkpt lat="33.440739" lon="-111.954431">
        <ele>351.324176</ele>
        <time>2024-04-28T06:53:16.000Z</time>
      </trkpt>
      <trkpt lat="33.440786" lon="-111.954529">
        <ele>351.320796</ele>
        <time>2024-04-28T06:53:17.000Z</time>
      </trkpt>
      <trkpt lat="33.440827" lon="-111.954635">
        <ele>351.316345</ele>
        <time>2024-04-28T06:53:18.000Z</time>
      </trkpt>
      <trkpt lat="33.441162" lon="-111.955169">
        <ele>351.294462</ele>
        <time>2024-04-28T06:53:24.000Z</time>
      </trkpt>
      <trkpt lat="33.441528" lon="-111.955567">
        <ele>351.280248</ele>
        <time>2024-04-28T06:53:29.000Z</time>
      </trkpt>
      <trkpt lat="33.441697" lon="-111.955698">
        <ele>351.356647</ele>
        <time>2024-04-28T06:53:31.000Z</time>
      </trkpt>
      <trkpt lat="33.44205" lon="-111.955973">
        <ele>351.506347</ele>
        <time>2024-04-28T06:53:36.000Z</time>
      </trkpt>
      <trkpt lat="33.442156" lon="-111.956048">
        <ele>351.551222</ele>
        <time>2024-04-28T06:53:37.000Z</time>
      </trkpt>
      <trkpt lat="33.442513" lon="-111.956361">
        <ele>351.712387</ele>
        <time>2024-04-28T06:53:42.000Z</time>
      </trkpt>
      <trkpt lat="33.442613" lon="-111.956456">
        <ele>351.761651</ele>
        <time>2024-04-28T06:53:43.000Z</time>
      </trkpt>
      <trkpt lat="33.442732" lon="-111.956561">
        <ele>351.811998</ele>
        <time>2024-04-28T06:53:45.000Z</time>
      </trkpt>
      <trkpt lat="33.442624" lon="-111.956778">
        <ele>351.888669</ele>
        <time>2024-04-28T06:53:47.000Z</time>
      </trkpt>
      <trkpt lat="33.442562" lon="-111.956901">
        <ele>351.932656</ele>
        <time>2024-04-28T06:53:48.000Z</time>
      </trkpt>
      <trkpt lat="33.442031" lon="-111.957788">
        <ele>351.814632</ele>
        <time>2024-04-28T06:53:58.000Z</time>
      </trkpt>
      <trkpt lat="33.441658" lon="-111.958416">
        <ele>351.730263</ele>
        <time>2024-04-28T06:54:05.000Z</time>
      </trkpt>
      <trkpt lat="33.440789" lon="-111.959871">
        <ele>350.464301</ele>
        <time>2024-04-28T06:54:22.000Z</time>
      </trkpt>
      <trkpt lat="33.440235" lon="-111.960436">
        <ele>349.704297</ele>
        <time>2024-04-28T06:54:30.000Z</time>
      </trkpt>
      <trkpt lat="33.439794" lon="-111.960703">
        <ele>349.169786</ele>
        <time>2024-04-28T06:54:35.000Z</time>
      </trkpt>
      <trkpt lat="33.439431" lon="-111.96084">
        <ele>348.722177</ele>
        <time>2024-04-28T06:54:39.000Z</time>
      </trkpt>
      <trkpt lat="33.439138" lon="-111.960884">
        <ele>348.4068</ele>
        <time>2024-04-28T06:54:42.000Z</time>
      </trkpt>
      <trkpt lat="33.438643" lon="-111.960925">
        <ele>347.857864</ele>
        <time>2024-04-28T06:54:48.000Z</time>
      </trkpt>
      <trkpt lat="33.438534" lon="-111.960935">
        <ele>347.769023</ele>
        <time>2024-04-28T06:54:49.000Z</time>
      </trkpt>
      <trkpt lat="33.438463" lon="-111.960944">
        <ele>347.712815</ele>
        <time>2024-04-28T06:54:50.000Z</time>
      </trkpt>
      <trkpt lat="33.437368" lon="-111.961037">
        <ele>346.856825</ele>
        <time>2024-04-28T06:55:02.000Z</time>
      </trkpt>
      <trkpt lat="33.437259" lon="-111.961038">
        <ele>346.774143</ele>
        <time>2024-04-28T06:55:03.000Z</time>
      </trkpt>
      <trkpt lat="33.437145" lon="-111.961052">
        <ele>346.692991</ele>
        <time>2024-04-28T06:55:04.000Z</time>
      </trkpt>
      <trkpt lat="33.437043" lon="-111.96105">
        <ele>346.613454</ele>
        <time>2024-04-28T06:55:05.000Z</time>
      </trkpt>
      <trkpt lat="33.436782" lon="-111.961076">
        <ele>346.493121</ele>
        <time>2024-04-28T06:55:08.000Z</time>
      </trkpt>
      <trkpt lat="33.433938" lon="-111.961231">
        <ele>346.87253</ele>
        <time>2024-04-28T06:55:40.000Z</time>
      </trkpt>
      <trkpt lat="33.433404" lon="-111.961253">
        <ele>347.026043</ele>
        <time>2024-04-28T06:55:46.000Z</time>
      </trkpt>
      <trkpt lat="33.432071" lon="-111.961271">
        <ele>347.579058</ele>
        <time>2024-04-28T06:56:01.000Z</time>
      </trkpt>
      <trkpt lat="33.431717" lon="-111.961248">
        <ele>347.733757</ele>
        <time>2024-04-28T06:56:05.000Z</time>
      </trkpt>
      <trkpt lat="33.431601" lon="-111.96116">
        <ele>347.795833</ele>
        <time>2024-04-28T06:56:07.000Z</time>
      </trkpt>
      <trkpt lat="33.431263" lon="-111.961097">
        <ele>347.851071</ele>
        <time>2024-04-28T06:56:11.000Z</time>
      </trkpt>
      <trkpt lat="33.430878" lon="-111.961044">
        <ele>347.888697</ele>
        <time>2024-04-28T06:56:15.000Z</time>
      </trkpt>
      <trkpt lat="33.430321" lon="-111.96097">
        <ele>347.943858</ele>
        <time>2024-04-28T06:56:21.000Z</time>
      </trkpt>
      <trkpt lat="33.430219" lon="-111.960979">
        <ele>347.952798</ele>
        <time>2024-04-28T06:56:22.000Z</time>
      </trkpt>
      <trkpt lat="33.430152" lon="-111.960966">
        <ele>347.959502</ele>
        <time>2024-04-28T06:56:23.000Z</time>
      </trkpt>
      <trkpt lat="33.429738" lon="-111.96096">
        <ele>347.999853</ele>
        <time>2024-04-28T06:56:28.000Z</time>
      </trkpt>
      <trkpt lat="33.429645" lon="-111.960959">
        <ele>348.000016</ele>
        <time>2024-04-28T06:56:29.000Z</time>
      </trkpt>
      <trkpt lat="33.429503" lon="-111.96097">
        <ele>348.000021</ele>
        <time>2024-04-28T06:56:31.000Z</time>
      </trkpt>
      <trkpt lat="33.429562" lon="-111.960729">
        <ele>348.000004</ele>
        <time>2024-04-28T06:56:33.000Z</time>
      </trkpt>
      <trkpt lat="33.429708" lon="-111.960345">
        <ele>348.000019</ele>
        <time>2024-04-28T06:56:37.000Z</time>
      </trkpt>
      <trkpt lat="33.429721" lon="-111.960308">
        <ele>348.000005</ele>
        <time>2024-04-28T06:56:37.000Z</time>
      </trkpt>
      <trkpt lat="33.429961" lon="-111.959781">
        <ele>348.00002</ele>
        <time>2024-04-28T06:56:43.000Z</time>
      </trkpt>
      <trkpt lat="33.430123" lon="-111.959438">
        <ele>348.000021</ele>
        <time>2024-04-28T06:56:47.000Z</time>
      </trkpt>
      <trkpt lat="33.430649" lon="-111.958288">
        <ele>348.011308</ele>
        <time>2024-04-28T06:56:59.000Z</time>
      </trkpt>
      <trkpt lat="33.43079" lon="-111.957636">
        <ele>348.017861</ele>
        <time>2024-04-28T06:57:05.000Z</time>
      </trkpt>
      <trkpt lat="33.430815" lon="-111.957158">
        <ele>348.053119</ele>
        <time>2024-04-28T06:57:09.000Z</time>
      </trkpt>
      <trkpt lat="33.430776" lon="-111.956756">
        <ele>348.160558</ele>
        <time>2024-04-28T06:57:13.000Z</time>
      </trkpt>
      <trkpt lat="33.430524" lon="-111.955507">
        <ele>348.490259</ele>
        <time>2024-04-28T06:57:25.000Z</time>
      </trkpt>
      <trkpt lat="33.43046" lon="-111.954856">
        <ele>348.745535</ele>
        <time>2024-04-28T06:57:31.000Z</time>
      </trkpt>
      <trkpt lat="33.430521" lon="-111.954061">
        <ele>349.147802</ele>
        <time>2024-04-28T06:57:38.000Z</time>
      </trkpt>
      <trkpt lat="33.430715" lon="-111.953228">
        <ele>349.594564</ele>
        <time>2024-04-28T06:57:46.000Z</time>
      </trkpt>
      <trkpt lat="33.430891" lon="-111.952389">
        <ele>349.74295</ele>
        <time>2024-04-28T06:57:54.000Z</time>
      </trkpt>
      <trkpt lat="33.43092" lon="-111.952256">
        <ele>349.754532</ele>
        <time>2024-04-28T06:57:55.000Z</time>
      </trkpt>
      <trkpt lat="33.430963" lon="-111.951393">
        <ele>349.827484</ele>
        <time>2024-04-28T06:58:03.000Z</time>
      </trkpt>
      <trkpt lat="33.43084" lon="-111.950166">
        <ele>349.734034</ele>
        <time>2024-04-28T06:58:14.000Z</time>
      </trkpt>
      <trkpt lat="33.430774" lon="-111.949678">
        <ele>349.648991</ele>
        <time>2024-04-28T06:58:19.000Z</time>
      </trkpt>
      <trkpt lat="33.430719" lon="-111.948969">
        <ele>349.527658</ele>
        <time>2024-04-28T06:58:26.000Z</time>
      </trkpt>
      <trkpt lat="33.430754" lon="-111.947764">
        <ele>349.417029</ele>
        <time>2024-04-28T06:58:37.000Z</time>
      </trkpt>
      <trkpt lat="33.4308" lon="-111.947428">
        <ele>349.389989</ele>
        <time>2024-04-28T06:58:40.000Z</time>
      </trkpt>
      <trkpt lat="33.430821" lon="-111.947341">
        <ele>349.383054</ele>
        <time>2024-04-28T06:58:41.000Z</time>
      </trkpt>
      <trkpt lat="33.431334" lon="-111.945376">
        <ele>349.288211</ele>
        <time>2024-04-28T06:59:00.000Z</time>
      </trkpt>
      <trkpt lat="33.431498" lon="-111.944656">
        <ele>349.266155</ele>
        <time>2024-04-28T06:59:07.000Z</time>
      </trkpt>
      <trkpt lat="33.431533" lon="-111.943516">
        <ele>349.853374</ele>
        <time>2024-04-28T06:59:18.000Z</time>
      </trkpt>
      <trkpt lat="33.431495" lon="-111.943409">
        <ele>349.921724</ele>
        <time>2024-04-28T06:59:19.000Z</time>
      </trkpt>
      <trkpt lat="33.43129" lon="-111.94337">
        <ele>350.050549</ele>
        <time>2024-04-28T06:59:21.000Z</time>
      </trkpt>
      <trkpt lat="33.431289" lon="-111.943382">
        <ele>350.050565</ele>
        <time>2024-04-28T06:59:21.000Z</time>
      </trkpt>
      <trkpt lat="33.431231" lon="-111.943363">
        <ele>350.09724</ele>
        <time>2024-04-28T06:59:22.000Z</time>
      </trkpt>
      <trkpt lat="33.430927" lon="-111.943355">
        <ele>350.298449</ele>
        <time>2024-04-28T06:59:25.000Z</time>
      </trkpt>
      <trkpt lat="33.430719" lon="-111.943336">
        <ele>350.427977</ele>
        <time>2024-04-28T06:59:27.000Z</time>
      </trkpt>
      <trkpt lat="33.430197" lon="-111.943305">
        <ele>350.913231</ele>
        <time>2024-04-28T06:59:33.000Z</time>
      </trkpt>
      <trkpt lat="33.429776" lon="-111.94314">
        <ele>351.311319</ele>
        <time>2024-04-28T06:59:38.000Z</time>
      </trkpt>
      <trkpt lat="33.429703" lon="-111.943079">
        <ele>351.404967</ele>
        <time>2024-04-28T06:59:39.000Z</time>
      </trkpt>
      <trkpt lat="33.429648" lon="-111.943027">
        <ele>351.471134</ele>
        <time>2024-04-28T06:59:40.000Z</time>
      </trkpt>
      <trkpt lat="33.429509" lon="-111.942902">
        <ele>351.622042</ele>
        <time>2024-04-28T06:59:42.000Z</time>
      </trkpt>
      <trkpt lat="33.429383" lon="-111.942852">
        <ele>351.74909</ele>
        <time>2024-04-28T06:59:43.000Z</time>
      </trkpt>
      <trkpt lat="33.429342" lon="-111.942871">
        <ele>351.797428</ele>
        <time>2024-04-28T06:59:43.000Z</time>
      </trkpt>
      <trkpt lat="33.429251" lon="-111.94284">
        <ele>351.873437</ele>
        <time>2024-04-28T06:59:44.000Z</time>
      </trkpt>
      <trkpt lat="33.429195" lon="-111.942743">
        <ele>351.971094</ele>
        <time>2024-04-28T06:59:45.000Z</time>
      </trkpt>
      <trkpt lat="33.429228" lon="-111.942563">
        <ele>352.133836</ele>
        <time>2024-04-28T06:59:47.000Z</time>
      </trkpt>
      <trkpt lat="33.429271" lon="-111.942534">
        <ele>352.210362</ele>
        <time>2024-04-28T06:59:48.000Z</time>
      </trkpt>
      <trkpt lat="33.429313" lon="-111.942473">
        <ele>352.31447</ele>
        <time>2024-04-28T06:59:49.000Z</time>
      </trkpt>
      <trkpt lat="33.429406" lon="-111.942235">
        <ele>352.656298</ele>
        <time>2024-04-28T06:59:51.000Z</time>
      </trkpt>
      <trkpt lat="33.429442" lon="-111.941337">
        <ele>353.840355</ele>
        <time>2024-04-28T06:59:59.000Z</time>
      </trkpt>
      <trkpt lat="33.429501" lon="-111.940741">
        <ele>354.649653</ele>
        <time>2024-04-28T07:00:05.000Z</time>
      </trkpt>
      <trkpt lat="33.429512" lon="-111.94069">
        <ele>354.724714</ele>
        <time>2024-04-28T07:00:05.000Z</time>
      </trkpt>
      <trkpt lat="33.429562" lon="-111.940173">
        <ele>355.569387</ele>
        <time>2024-04-28T07:00:10.000Z</time>
      </trkpt>
      <trkpt lat="33.429578" lon="-111.94009">
        <ele>355.739534</ele>
        <time>2024-04-28T07:00:11.000Z</time>
      </trkpt>
      <trkpt lat="33.429573" lon="-111.939955">
        <ele>355.970108</ele>
        <time>2024-04-28T07:00:12.000Z</time>
      </trkpt>
      <trkpt lat="33.429595" lon="-111.939852">
        <ele>356.178692</ele>
        <time>2024-04-28T07:00:13.000Z</time>
      </trkpt>
      <trkpt lat="33.429595" lon="-111.939831">
        <ele>356.22895</ele>
        <time>2024-04-28T07:00:13.000Z</time>
      </trkpt>
      <trkpt lat="33.42964" lon="-111.939216">
        <ele>357.371203</ele>
        <time>2024-04-28T07:00:19.000Z</time>
      </trkpt>
      <trkpt lat="33.429706" lon="-111.938775">
        <ele>358.186407</ele>
        <time>2024-04-28T07:00:23.000Z</time>
      </trkpt>
      <trkpt lat="33.429846" lon="-111.938488">
        <ele>358.813925</ele>
        <time>2024-04-28T07:00:26.000Z</time>
      </trkpt>
      <trkpt lat="33.430004" lon="-111.938182">
        <ele>358.5446</ele>
        <time>2024-04-28T07:00:29.000Z</time>
      </trkpt>
      <trkpt lat="33.430356" lon="-111.937541">
        <ele>357.360965</ele>
        <time>2024-04-28T07:00:36.000Z</time>
      </trkpt>
      <trkpt lat="33.430396" lon="-111.937406">
        <ele>357.16631</ele>
        <time>2024-04-28T07:00:37.000Z</time>
      </trkpt>
      <trkpt lat="33.430546" lon="-111.936838">
        <ele>356.241504</ele>
        <time>2024-04-28T07:00:43.000Z</time>
      </trkpt>
      <trkpt lat="33.43056" lon="-111.936466">
        <ele>355.678529</ele>
        <time>2024-04-28T07:00:46.000Z</time>
      </trkpt>
      <trkpt lat="33.430536" lon="-111.936075">
        <ele>354.870425</ele>
        <time>2024-04-28T07:00:50.000Z</time>
      </trkpt>
      <trkpt lat="33.43043" lon="-111.935652">
        <ele>353.912504</ele>
        <time>2024-04-28T07:00:54.000Z</time>
      </trkpt>
      <trkpt lat="33.430063" lon="-111.934936">
        <ele>352.130924</ele>
        <time>2024-04-28T07:01:02.000Z</time>
      </trkpt>
      <trkpt lat="33.429874" lon="-111.934664">
        <ele>351.419768</ele>
        <time>2024-04-28T07:01:05.000Z</time>
      </trkpt>
      <trkpt lat="33.429813" lon="-111.934585">
        <ele>351.188627</ele>
        <time>2024-04-28T07:01:06.000Z</time>
      </trkpt>
      <trkpt lat="33.429487" lon="-111.934063">
        <ele>350.981828</ele>
        <time>2024-04-28T07:01:12.000Z</time>
      </trkpt>
      <trkpt lat="33.429351" lon="-111.933793">
        <ele>350.901005</ele>
        <time>2024-04-28T07:01:15.000Z</time>
      </trkpt>
      <trkpt lat="33.429302" lon="-111.933566">
        <ele>350.838328</ele>
        <time>2024-04-28T07:01:17.000Z</time>
      </trkpt>
      <trkpt lat="33.429242" lon="-111.932191">
        <ele>350.639387</ele>
        <time>2024-04-28T07:01:30.000Z</time>
      </trkpt>
      <trkpt lat="33.429037" lon="-111.931293">
        <ele>350.763733</ele>
        <time>2024-04-28T07:01:39.000Z</time>
      </trkpt>
      <trkpt lat="33.428831" lon="-111.930759">
        <ele>350.839939</ele>
        <time>2024-04-28T07:01:44.000Z</time>
      </trkpt>
      <trkpt lat="33.428692" lon="-111.930126">
        <ele>350.920033</ele>
        <time>2024-04-28T07:01:50.000Z</time>
      </trkpt>
      <trkpt lat="33.428702" lon="-111.930094">
        <ele>350.923918</ele>
        <time>2024-04-28T07:01:50.000Z</time>
      </trkpt>
      <trkpt lat="33.428655" lon="-111.929473">
        <ele>350.995243</ele>
        <time>2024-04-28T07:01:56.000Z</time>
      </trkpt>
      <trkpt lat="33.428659" lon="-111.929307">
        <ele>351.013592</ele>
        <time>2024-04-28T07:01:58.000Z</time>
      </trkpt>
      <trkpt lat="33.42867" lon="-111.929138">
        <ele>351.033413</ele>
        <time>2024-04-28T07:02:00.000Z</time>
      </trkpt>
      <trkpt lat="33.428769" lon="-111.928368">
        <ele>351.120612</ele>
        <time>2024-04-28T07:02:07.000Z</time>
      </trkpt>
      <trkpt lat="33.428833" lon="-111.927967">
        <ele>351.155146</ele>
        <time>2024-04-28T07:02:11.000Z</time>
      </trkpt>
      <trkpt lat="33.428823" lon="-111.927215">
        <ele>351.218399</ele>
        <time>2024-04-28T07:02:18.000Z</time>
      </trkpt>
      <trkpt lat="33.428801" lon="-111.926491">
        <ele>351.279465</ele>
        <time>2024-04-28T07:02:25.000Z</time>
      </trkpt>
      <trkpt lat="33.428778" lon="-111.926281">
        <ele>351.297218</ele>
        <time>2024-04-28T07:02:27.000Z</time>
      </trkpt>
      <trkpt lat="33.428899" lon="-111.926285">
        <ele>351.292707</ele>
        <time>2024-04-28T07:02:28.000Z</time>
      </trkpt>
      <trkpt lat="33.428916" lon="-111.926516">
        <ele>351.277083</ele>
        <time>2024-04-28T07:02:30.000Z</time>
      </trkpt>
      <trkpt lat="33.428905" lon="-111.926532">
        <ele>351.277017</ele>
        <time>2024-04-28T07:02:30.000Z</time>
      </trkpt>
      <trkpt lat="33.428963" lon="-111.92758">
        <ele>351.208441</ele>
        <time>2024-04-28T07:02:40.000Z</time>
      </trkpt>
      <trkpt lat="33.428944" lon="-111.927922">
        <ele>351.185715</ele>
        <time>2024-04-28T07:02:43.000Z</time>
      </trkpt>
      <trkpt lat="33.428875" lon="-111.928462">
        <ele>351.141445</ele>
        <time>2024-04-28T07:02:48.000Z</time>
      </trkpt>
      <trkpt lat="33.428785" lon="-111.929122">
        <ele>351.051843</ele>
        <time>2024-04-28T07:02:54.000Z</time>
      </trkpt>
      <trkpt lat="33.428779" lon="-111.929297">
        <ele>351.02757</ele>
        <time>2024-04-28T07:02:56.000Z</time>
      </trkpt>
      <trkpt lat="33.428789" lon="-111.929478">
        <ele>351.004128</ele>
        <time>2024-04-28T07:02:58.000Z</time>
      </trkpt>
      <trkpt lat="33.428805" lon="-111.929781">
        <ele>350.963027</ele>
        <time>2024-04-28T07:03:01.000Z</time>
      </trkpt>
      <trkpt lat="33.428826" lon="-111.930048">
        <ele>350.928973</ele>
        <time>2024-04-28T07:03:03.000Z</time>
      </trkpt>
      <trkpt lat="33.428918" lon="-111.930537">
        <ele>350.853499</ele>
        <time>2024-04-28T07:03:08.000Z</time>
      </trkpt>
      <trkpt lat="33.428968" lon="-111.930716">
        <ele>350.806997</ele>
        <time>2024-04-28T07:03:10.000Z</time>
      </trkpt>
      <trkpt lat="33.42914" lon="-111.931254">
        <ele>350.670993</ele>
        <time>2024-04-28T07:03:15.000Z</time>
      </trkpt>
      <trkpt lat="33.429393" lon="-111.931943">
        <ele>350.488958</ele>
        <time>2024-04-28T07:03:22.000Z</time>
      </trkpt>
      <trkpt lat="33.429431" lon="-111.932234">
        <ele>350.418987</ele>
        <time>2024-04-28T07:03:25.000Z</time>
      </trkpt>
      <trkpt lat="33.429449" lon="-111.932692">
        <ele>350.355174</ele>
        <time>2024-04-28T07:03:29.000Z</time>
      </trkpt>
      <trkpt lat="33.429465" lon="-111.933261">
        <ele>350.355437</ele>
        <time>2024-04-28T07:03:34.000Z</time>
      </trkpt>
      <trkpt lat="33.429474" lon="-111.933353">
        <ele>350.355499</ele>
        <time>2024-04-28T07:03:35.000Z</time>
      </trkpt>
      <trkpt lat="33.429566" lon="-111.933814">
        <ele>350.355725</ele>
        <time>2024-04-28T07:03:39.000Z</time>
      </trkpt>
      <trkpt lat="33.429636" lon="-111.93398">
        <ele>350.355808</ele>
        <time>2024-04-28T07:03:41.000Z</time>
      </trkpt>
      <trkpt lat="33.429853" lon="-111.934313">
        <ele>350.356008</ele>
        <time>2024-04-28T07:03:45.000Z</time>
      </trkpt>
      <trkpt lat="33.430323" lon="-111.935057">
        <ele>351.505849</ele>
        <time>2024-04-28T07:03:54.000Z</time>
      </trkpt>
      <trkpt lat="33.430599" lon="-111.935764">
        <ele>352.728344</ele>
        <time>2024-04-28T07:04:01.000Z</time>
      </trkpt>
      <trkpt lat="33.430693" lon="-111.936267">
        <ele>353.54817</ele>
        <time>2024-04-28T07:04:06.000Z</time>
      </trkpt>
      <trkpt lat="33.430684" lon="-111.936736">
        <ele>354.269583</ele>
        <time>2024-04-28T07:04:10.000Z</time>
      </trkpt>
      <trkpt lat="33.430549" lon="-111.93749">
        <ele>355.39782</ele>
        <time>2024-04-28T07:04:17.000Z</time>
      </trkpt>
      <trkpt lat="33.430489" lon="-111.937635">
        <ele>355.62353</ele>
        <time>2024-04-28T07:04:19.000Z</time>
      </trkpt>
      <trkpt lat="33.430071" lon="-111.938425">
        <ele>356.85708</ele>
        <time>2024-04-28T07:04:28.000Z</time>
      </trkpt>
      <trkpt lat="33.429968" lon="-111.938578">
        <ele>356.542276</ele>
        <time>2024-04-28T07:04:30.000Z</time>
      </trkpt>
      <trkpt lat="33.429816" lon="-111.938901">
        <ele>355.961868</ele>
        <time>2024-04-28T07:04:33.000Z</time>
      </trkpt>
      <trkpt lat="33.429757" lon="-111.939132">
        <ele>355.593308</ele>
        <time>2024-04-28T07:04:35.000Z</time>
      </trkpt>
      <trkpt lat="33.429702" lon="-111.939847">
        <ele>354.481789</ele>
        <time>2024-04-28T07:04:42.000Z</time>
      </trkpt>
      <trkpt lat="33.429674" lon="-111.939971">
        <ele>354.277597</ele>
        <time>2024-04-28T07:04:43.000Z</time>
      </trkpt>
      <trkpt lat="33.429742" lon="-111.939974">
        <ele>354.155247</ele>
        <time>2024-04-28T07:04:44.000Z</time>
      </trkpt>
      <trkpt lat="33.430206" lon="-111.939987">
        <ele>353.30305</ele>
        <time>2024-04-28T07:04:49.000Z</time>
      </trkpt>
      <trkpt lat="33.431244" lon="-111.94006">
        <ele>351.313407</ele>
        <time>2024-04-28T07:05:01.000Z</time>
      </trkpt>
      <trkpt lat="33.431681" lon="-111.940121">
        <ele>350.498193</ele>
        <time>2024-04-28T07:05:06.000Z</time>
      </trkpt>
      <trkpt lat="33.432489" lon="-111.940314">
        <ele>350.082595</ele>
        <time>2024-04-28T07:05:15.000Z</time>
      </trkpt>
      <trkpt lat="33.433391" lon="-111.940635">
        <ele>349.975246</ele>
        <time>2024-04-28T07:05:25.000Z</time>
      </trkpt>
      <trkpt lat="33.434413" lon="-111.941117">
        <ele>350.625019</ele>
        <time>2024-04-28T07:05:37.000Z</time>
      </trkpt>
      <trkpt lat="33.435283" lon="-111.941676">
        <ele>351.535788</ele>
        <time>2024-04-28T07:05:48.000Z</time>
      </trkpt>
      <trkpt lat="33.435708" lon="-111.941974">
        <ele>352.94504</ele>
        <time>2024-04-28T07:05:53.000Z</time>
      </trkpt>
      <trkpt lat="33.43654" lon="-111.942694">
        <ele>355.906173</ele>
        <time>2024-04-28T07:06:04.000Z</time>
      </trkpt>
      <trkpt lat="33.436758" lon="-111.942872">
        <ele>356.663164</ele>
        <time>2024-04-28T07:06:07.000Z</time>
      </trkpt>
      <trkpt lat="33.436982" lon="-111.943013">
        <ele>357.452956</ele>
        <time>2024-04-28T07:06:10.000Z</time>
      </trkpt>
      <trkpt lat="33.437456" lon="-111.943233">
        <ele>358.98536</ele>
        <time>2024-04-28T07:06:16.000Z</time>
      </trkpt>
      <trkpt lat="33.43756" lon="-111.943277">
        <ele>359.286875</ele>
        <time>2024-04-28T07:06:17.000Z</time>
      </trkpt>
      <trkpt lat="33.437611" lon="-111.943137">
        <ele>359.654667</ele>
        <time>2024-04-28T07:06:18.000Z</time>
      </trkpt>
      <trkpt lat="33.438013" lon="-111.942103">
        <ele>362.332448</ele>
        <time>2024-04-28T07:06:29.000Z</time>
      </trkpt>
      <trkpt lat="33.438228" lon="-111.941565">
        <ele>363.345686</ele>
        <time>2024-04-28T07:06:35.000Z</time>
      </trkpt>
      <trkpt lat="33.438683" lon="-111.940328">
        <ele>365.61585</ele>
        <time>2024-04-28T07:06:48.000Z</time>
      </trkpt>
      <trkpt lat="33.438842" lon="-111.939725">
        <ele>366.190388</ele>
        <time>2024-04-28T07:06:54.000Z</time>
      </trkpt>
      <trkpt lat="33.438977" lon="-111.939014">
        <ele>366.862412</ele>
        <time>2024-04-28T07:07:01.000Z</time>
      </trkpt>
      <trkpt lat="33.439158" lon="-111.937276">
        <ele>367.358938</ele>
        <time>2024-04-28T07:07:17.000Z</time>
      </trkpt>
      <trkpt lat="33.439432" lon="-111.936607">
        <ele>367.20748</ele>
        <time>2024-04-28T07:07:24.000Z</time>
      </trkpt>
      <trkpt lat="33.439891" lon="-111.935727">
        <ele>366.352032</ele>
        <time>2024-04-28T07:07:34.000Z</time>
      </trkpt>
      <trkpt lat="33.440037" lon="-111.935235">
        <ele>365.732752</ele>
        <time>2024-04-28T07:07:39.000Z</time>
      </trkpt>
      <trkpt lat="33.440102" lon="-111.934499">
        <ele>364.8157</ele>
        <time>2024-04-28T07:07:46.000Z</time>
      </trkpt>
      <trkpt lat="33.440132" lon="-111.932531">
        <ele>360.423807</ele>
        <time>2024-04-28T07:08:04.000Z</time>
      </trkpt>
      <trkpt lat="33.440155" lon="-111.931586">
        <ele>358.800663</ele>
        <time>2024-04-28T07:08:13.000Z</time>
      </trkpt>
      <trkpt lat="33.440169" lon="-111.930972">
        <ele>358.158414</ele>
        <time>2024-04-28T07:08:19.000Z</time>
      </trkpt>
      <trkpt lat="33.440181" lon="-111.93087">
        <ele>358.049786</ele>
        <time>2024-04-28T07:08:20.000Z</time>
      </trkpt>
      <trkpt lat="33.440218" lon="-111.930781">
        <ele>357.939695</ele>
        <time>2024-04-28T07:08:21.000Z</time>
      </trkpt>
      <trkpt lat="33.440364" lon="-111.93078">
        <ele>357.751173</ele>
        <time>2024-04-28T07:08:23.000Z</time>
      </trkpt>
      <trkpt lat="33.440758" lon="-111.93079">
        <ele>357.260718</ele>
        <time>2024-04-28T07:08:27.000Z</time>
      </trkpt>
      <trkpt lat="33.44128" lon="-111.930803">
        <ele>357.641458</ele>
        <time>2024-04-28T07:08:33.000Z</time>
      </trkpt>
      <trkpt lat="33.441756" lon="-111.93093">
        <ele>358.51709</ele>
        <time>2024-04-28T07:08:38.000Z</time>
      </trkpt>
      <trkpt lat="33.442034" lon="-111.931086">
        <ele>359.046755</ele>
        <time>2024-04-28T07:08:41.000Z</time>
      </trkpt>
      <trkpt lat="33.442432" lon="-111.93143">
        <ele>359.955165</ele>
        <time>2024-04-28T07:08:46.000Z</time>
      </trkpt>
      <trkpt lat="33.443065" lon="-111.932124">
        <ele>362.033276</ele>
        <time>2024-04-28T07:08:56.000Z</time>
      </trkpt>
      <trkpt lat="33.443381" lon="-111.932401">
        <ele>362.993848</ele>
        <time>2024-04-28T07:09:00.000Z</time>
      </trkpt>
      <trkpt lat="33.443727" lon="-111.93257">
        <ele>363.952228</ele>
        <time>2024-04-28T07:09:04.000Z</time>
      </trkpt>
      <trkpt lat="33.444758" lon="-111.932916">
        <ele>366.592149</ele>
        <time>2024-04-28T07:09:16.000Z</time>
      </trkpt>
      <trkpt lat="33.445211" lon="-111.933231">
        <ele>367.879643</ele>
        <time>2024-04-28T07:09:22.000Z</time>
      </trkpt>
      <trkpt lat="33.446104" lon="-111.934539">
        <ele>370.788846</ele>
        <time>2024-04-28T07:09:38.000Z</time>
      </trkpt>
      <trkpt lat="33.446372" lon="-111.934854">
        <ele>371.490266</ele>
        <time>2024-04-28T07:09:42.000Z</time>
      </trkpt>
      <trkpt lat="33.446738" lon="-111.935023">
        <ele>372.184417</ele>
        <time>2024-04-28T07:09:46.000Z</time>
      </trkpt>
      <trkpt lat="33.447365" lon="-111.935102">
        <ele>372.600719</ele>
        <time>2024-04-28T07:09:53.000Z</time>
      </trkpt>
      <trkpt lat="33.447842" lon="-111.935109">
        <ele>372.68195</ele>
        <time>2024-04-28T07:09:58.000Z</time>
      </trkpt>
      <trkpt lat="33.449439" lon="-111.935132">
        <ele>372.723728</ele>
        <time>2024-04-28T07:10:16.000Z</time>
      </trkpt>
      <trkpt lat="33.449828" lon="-111.935149">
        <ele>372.668515</ele>
        <time>2024-04-28T07:10:20.000Z</time>
      </trkpt>
      <trkpt lat="33.450413" lon="-111.935156">
        <ele>372.583466</ele>
        <time>2024-04-28T07:10:27.000Z</time>
      </trkpt>
      <trkpt lat="33.450454" lon="-111.935173">
        <ele>372.578502</ele>
        <time>2024-04-28T07:10:27.000Z</time>
      </trkpt>
      <trkpt lat="33.450514" lon="-111.935207">
        <ele>372.573384</ele>
        <time>2024-04-28T07:10:28.000Z</time>
      </trkpt>
      <trkpt lat="33.4504" lon="-111.935257">
        <ele>372.607335</ele>
        <time>2024-04-28T07:10:29.000Z</time>
      </trkpt>
      <trkpt lat="33.448645" lon="-111.935217">
        <ele>373.087942</ele>
        <time>2024-04-28T07:10:49.000Z</time>
      </trkpt>
      <trkpt lat="33.447851" lon="-111.935214">
        <ele>372.810561</ele>
        <time>2024-04-28T07:10:58.000Z</time>
      </trkpt>
      <trkpt lat="33.447376" lon="-111.935196">
        <ele>372.649713</ele>
        <time>2024-04-28T07:11:03.000Z</time>
      </trkpt>
      <trkpt lat="33.446886" lon="-111.935172">
        <ele>372.419394</ele>
        <time>2024-04-28T07:11:08.000Z</time>
      </trkpt>
      <trkpt lat="33.446345" lon="-111.934928">
        <ele>371.331872</ele>
        <time>2024-04-28T07:11:14.000Z</time>
      </trkpt>
      <trkpt lat="33.446164" lon="-111.93478">
        <ele>370.931965</ele>
        <time>2024-04-28T07:11:16.000Z</time>
      </trkpt>
      <trkpt lat="33.445674" lon="-111.934088">
        <ele>369.504632</ele>
        <time>2024-04-28T07:11:24.000Z</time>
      </trkpt>
      <trkpt lat="33.445385" lon="-111.93361">
        <ele>368.430361</ele>
        <time>2024-04-28T07:11:29.000Z</time>
      </trkpt>
      <trkpt lat="33.445147" lon="-111.933317">
        <ele>367.585917</ele>
        <time>2024-04-28T07:11:33.000Z</time>
      </trkpt>
      <trkpt lat="33.444726" lon="-111.932999">
        <ele>366.365667</ele>
        <time>2024-04-28T07:11:39.000Z</time>
      </trkpt>
      <trkpt lat="33.443841" lon="-111.932718">
        <ele>364.114985</ele>
        <time>2024-04-28T07:11:49.000Z</time>
      </trkpt>
      <trkpt lat="33.44334" lon="-111.932476">
        <ele>362.68192</ele>
        <time>2024-04-28T07:11:55.000Z</time>
      </trkpt>
      <trkpt lat="33.442778" lon="-111.931956">
        <ele>360.771101</ele>
        <time>2024-04-28T07:12:03.000Z</time>
      </trkpt>
      <trkpt lat="33.442386" lon="-111.931508">
        <ele>359.617926</ele>
        <time>2024-04-28T07:12:09.000Z</time>
      </trkpt>
      <trkpt lat="33.442169" lon="-111.931282">
        <ele>359.189141</ele>
        <time>2024-04-28T07:12:12.000Z</time>
      </trkpt>
      <trkpt lat="33.441743" lon="-111.931029">
        <ele>358.461893</ele>
        <time>2024-04-28T07:12:17.000Z</time>
      </trkpt>
      <trkpt lat="33.441303" lon="-111.930919">
        <ele>357.803703</ele>
        <time>2024-04-28T07:12:22.000Z</time>
      </trkpt>
      <trkpt lat="33.440834" lon="-111.930897">
        <ele>357.462003</ele>
        <time>2024-04-28T07:12:27.000Z</time>
      </trkpt>
      <trkpt lat="33.440373" lon="-111.930886">
        <ele>358.233954</ele>
        <time>2024-04-28T07:12:32.000Z</time>
      </trkpt>
      <trkpt lat="33.440282" lon="-111.930889">
        <ele>358.370887</ele>
        <time>2024-04-28T07:12:33.000Z</time>
      </trkpt>
      <trkpt lat="33.440295" lon="-111.930986">
        <ele>358.512635</ele>
        <time>2024-04-28T07:12:34.000Z</time>
      </trkpt>
      <trkpt lat="33.440166" lon="-111.935086">
        <ele>365.909144</ele>
        <time>2024-04-28T07:13:12.000Z</time>
      </trkpt>
      <trkpt lat="33.440005" lon="-111.935772">
        <ele>366.898623</ele>
        <time>2024-04-28T07:13:19.000Z</time>
      </trkpt>
      <trkpt lat="33.439433" lon="-111.936901">
        <ele>367.682118</ele>
        <time>2024-04-28T07:13:31.000Z</time>
      </trkpt>
      <trkpt lat="33.439283" lon="-111.937337">
        <ele>367.494437</ele>
        <time>2024-04-28T07:13:35.000Z</time>
      </trkpt>
      <trkpt lat="33.439193" lon="-111.937795">
        <ele>367.296322</ele>
        <time>2024-04-28T07:13:39.000Z</time>
      </trkpt>
      <trkpt lat="33.439024" lon="-111.939539">
        <ele>365.534999</ele>
        <time>2024-04-28T07:13:55.000Z</time>
      </trkpt>
      <trkpt lat="33.438803" lon="-111.940364">
        <ele>364.367696</ele>
        <time>2024-04-28T07:14:03.000Z</time>
      </trkpt>
      <trkpt lat="33.438589" lon="-111.940973">
        <ele>363.660861</ele>
        <time>2024-04-28T07:14:09.000Z</time>
      </trkpt>
      <trkpt lat="33.43834" lon="-111.94161">
        <ele>363.007576</ele>
        <time>2024-04-28T07:14:16.000Z</time>
      </trkpt>
      <trkpt lat="33.438222" lon="-111.94196">
        <ele>362.64921</ele>
        <time>2024-04-28T07:14:20.000Z</time>
      </trkpt>
      <trkpt lat="33.438018" lon="-111.942483">
        <ele>362.111335</ele>
        <time>2024-04-28T07:14:25.000Z</time>
      </trkpt>
      <trkpt lat="33.437757" lon="-111.943171">
        <ele>361.849585</ele>
        <time>2024-04-28T07:14:32.000Z</time>
      </trkpt>
      <trkpt lat="33.437706" lon="-111.943318">
        <ele>361.798785</ele>
        <time>2024-04-28T07:14:33.000Z</time>
      </trkpt>
      <trkpt lat="33.438088" lon="-111.943444">
        <ele>361.632699</ele>
        <time>2024-04-28T07:14:37.000Z</time>
      </trkpt>
      <trkpt lat="33.438312" lon="-111.943523">
        <ele>361.540304</ele>
        <time>2024-04-28T07:14:40.000Z</time>
      </trkpt>
      <trkpt lat="33.438695" lon="-111.943696">
        <ele>361.371069</ele>
        <time>2024-04-28T07:14:45.000Z</time>
      </trkpt>
      <trkpt lat="33.438982" lon="-111.943866">
        <ele>361.382401</ele>
        <time>2024-04-28T07:14:49.000Z</time>
      </trkpt>
      <trkpt lat="33.439212" lon="-111.944009">
        <ele>361.395642</ele>
        <time>2024-04-28T07:14:52.000Z</time>
      </trkpt>
      <trkpt lat="33.440462" lon="-111.945002">
        <ele>361.593119</ele>
        <time>2024-04-28T07:15:09.000Z</time>
      </trkpt>
      <trkpt lat="33.441009" lon="-111.945462">
        <ele>361.939874</ele>
        <time>2024-04-28T07:15:16.000Z</time>
      </trkpt>
      <trkpt lat="33.442122" lon="-111.946425">
        <ele>362.729175</ele>
        <time>2024-04-28T07:15:31.000Z</time>
      </trkpt>
      <trkpt lat="33.44459" lon="-111.948596">
        <ele>364.279551</ele>
        <time>2024-04-28T07:16:05.000Z</time>
      </trkpt>
      <trkpt lat="33.444394" lon="-111.948881">
        <ele>363.932962</ele>
        <time>2024-04-28T07:16:08.000Z</time>
      </trkpt>
      <trkpt lat="33.444224" lon="-111.948965">
        <ele>363.701714</ele>
        <time>2024-04-28T07:16:10.000Z</time>
      </trkpt>
      <trkpt lat="33.443023" lon="-111.948325">
        <ele>362.038416</ele>
        <time>2024-04-28T07:16:25.000Z</time>
      </trkpt>
      <trkpt lat="33.44228" lon="-111.947735">
        <ele>361.290924</ele>
        <time>2024-04-28T07:16:35.000Z</time>
      </trkpt>
      <trkpt lat="33.442024" lon="-111.947411">
        <ele>360.982698</ele>
        <time>2024-04-28T07:16:39.000Z</time>
      </trkpt>
      <trkpt lat="33.441697" lon="-111.946868">
        <ele>360.528215</ele>
        <time>2024-04-28T07:16:45.000Z</time>
      </trkpt>
      <trkpt lat="33.441244" lon="-111.946127">
        <ele>360.640512</ele>
        <time>2024-04-28T07:16:54.000Z</time>
      </trkpt>
      <trkpt lat="33.440848" lon="-111.945617">
        <ele>360.726668</ele>
        <time>2024-04-28T07:17:00.000Z</time>
      </trkpt>
      <trkpt lat="33.440359" lon="-111.945045">
        <ele>360.754843</ele>
        <time>2024-04-28T07:17:08.000Z</time>
      </trkpt>
      <trkpt lat="33.439627" lon="-111.944434">
        <ele>360.619235</ele>
        <time>2024-04-28T07:17:18.000Z</time>
      </trkpt>
      <trkpt lat="33.439176" lon="-111.944111">
        <ele>360.539708</ele>
        <time>2024-04-28T07:17:24.000Z</time>
      </trkpt>
      <trkpt lat="33.438634" lon="-111.943823">
        <ele>359.753462</ele>
        <time>2024-04-28T07:17:31.000Z</time>
      </trkpt>
      <trkpt lat="33.43826" lon="-111.943661">
        <ele>359.072302</ele>
        <time>2024-04-28T07:17:35.000Z</time>
      </trkpt>
      <trkpt lat="33.43822" lon="-111.943658">
        <ele>358.98603</ele>
        <time>2024-04-28T07:17:35.000Z</time>
      </trkpt>
      <trkpt lat="33.438114" lon="-111.943617">
        <ele>358.823745</ele>
        <time>2024-04-28T07:17:36.000Z</time>
      </trkpt>
      <trkpt lat="33.437657" lon="-111.943468">
        <ele>357.987831</ele>
        <time>2024-04-28T07:17:41.000Z</time>
      </trkpt>
      <trkpt lat="33.437506" lon="-111.943427">
        <ele>357.736903</ele>
        <time>2024-04-28T07:17:43.000Z</time>
      </trkpt>
      <trkpt lat="33.437384" lon="-111.943386">
        <ele>357.5365</ele>
        <time>2024-04-28T07:17:44.000Z</time>
      </trkpt>
      <trkpt lat="33.436171" lon="-111.942962">
        <ele>353.824925</ele>
        <time>2024-04-28T07:17:58.000Z</time>
      </trkpt>
      <trkpt lat="33.435594" lon="-111.942717">
        <ele>352.083805</ele>
        <time>2024-04-28T07:18:05.000Z</time>
      </trkpt>
      <trkpt lat="33.435467" lon="-111.942666">
        <ele>351.887759</ele>
        <time>2024-04-28T07:18:06.000Z</time>
      </trkpt>
      <trkpt lat="33.435099" lon="-111.942519">
        <ele>351.331124</ele>
        <time>2024-04-28T07:18:10.000Z</time>
      </trkpt>
      <trkpt lat="33.434223" lon="-111.942098">
        <ele>349.939464</ele>
        <time>2024-04-28T07:18:20.000Z</time>
      </trkpt>
      <trkpt lat="33.433372" lon="-111.941596">
        <ele>349.553363</ele>
        <time>2024-04-28T07:18:31.000Z</time>
      </trkpt>
      <trkpt lat="33.432331" lon="-111.940964">
        <ele>349.682584</ele>
        <time>2024-04-28T07:18:44.000Z</time>
      </trkpt>
      <trkpt lat="33.431544" lon="-111.940571">
        <ele>350.301438</ele>
        <time>2024-04-28T07:18:53.000Z</time>
      </trkpt>
      <trkpt lat="33.431303" lon="-111.940467">
        <ele>350.490142</ele>
        <time>2024-04-28T07:18:56.000Z</time>
      </trkpt>
      <trkpt lat="33.430318" lon="-111.940134">
        <ele>351.209356</ele>
        <time>2024-04-28T07:19:07.000Z</time>
      </trkpt>
      <trkpt lat="33.430198" lon="-111.940137">
        <ele>351.282291</ele>
        <time>2024-04-28T07:19:08.000Z</time>
      </trkpt>
      <trkpt lat="33.429742" lon="-111.940102">
        <ele>351.581873</ele>
        <time>2024-04-28T07:19:13.000Z</time>
      </trkpt>
      <trkpt lat="33.429677" lon="-111.940086">
        <ele>351.623014</ele>
        <time>2024-04-28T07:19:14.000Z</time>
      </trkpt>
      <trkpt lat="33.429659" lon="-111.94019">
        <ele>351.674159</ele>
        <time>2024-04-28T07:19:15.000Z</time>
      </trkpt>
      <trkpt lat="33.429608" lon="-111.940906">
        <ele>352.060025</ele>
        <time>2024-04-28T07:19:22.000Z</time>
      </trkpt>
      <trkpt lat="33.42953" lon="-111.941563">
        <ele>351.937508</ele>
        <time>2024-04-28T07:19:28.000Z</time>
      </trkpt>
      <trkpt lat="33.429536" lon="-111.942078">
        <ele>351.748714</ele>
        <time>2024-04-28T07:19:33.000Z</time>
      </trkpt>
      <trkpt lat="33.429519" lon="-111.942708">
        <ele>351.517138</ele>
        <time>2024-04-28T07:19:39.000Z</time>
      </trkpt>
      <trkpt lat="33.429584" lon="-111.942804">
        <ele>351.479211</ele>
        <time>2024-04-28T07:19:40.000Z</time>
      </trkpt>
      <trkpt lat="33.429606" lon="-111.942846">
        <ele>351.453976</ele>
        <time>2024-04-28T07:19:40.000Z</time>
      </trkpt>
      <trkpt lat="33.429833" lon="-111.94305">
        <ele>351.329428</ele>
        <time>2024-04-28T07:19:43.000Z</time>
      </trkpt>
      <trkpt lat="33.430218" lon="-111.943184">
        <ele>350.973348</ele>
        <time>2024-04-28T07:19:47.000Z</time>
      </trkpt>
      <trkpt lat="33.430312" lon="-111.943216">
        <ele>350.878377</ele>
        <time>2024-04-28T07:19:48.000Z</time>
      </trkpt>
      <trkpt lat="33.430921" lon="-111.943245">
        <ele>350.336467</ele>
        <time>2024-04-28T07:19:55.000Z</time>
      </trkpt>
      <trkpt lat="33.431513" lon="-111.943278">
        <ele>349.809351</ele>
        <time>2024-04-28T07:20:02.000Z</time>
      </trkpt>
      <trkpt lat="33.431635" lon="-111.943406">
        <ele>349.675348591</ele>
        <time>2024-04-28T07:20:04.000Z</time>
      </trkpt>
      <trkpt lat="33.431593" lon="-111.944529">
        <ele>348.900098643</ele>
        <time>2024-04-28T07:20:14.000Z</time>
      </trkpt>
      <trkpt lat="33.431499" lon="-111.945084">
        <ele>348.509541832</ele>
        <time>2024-04-28T07:20:19.000Z</time>
      </trkpt>
    </trkseg>
  </trk>
</gpx>

<!--
Performance optimized by W3 Total Cache. Learn more: https://www.boldgrid.com/w3-total-cache/?utm_source=w3tc&utm_medium=footer_comment&utm_campaign=free_plugin

Page Caching using Disk: Enhanced{w3tc_pagecache_reject_reason} 

Served from: www.aquabike.world @ 2026-05-10 15:00:06 by W3 Total Cache
-->